Startpagina
METAR-TAF:

METAR-TAF

Vliegvelden :

Vlieland Heliport

Vlieland, Nederland

breedte: 53-15N, lengte: 004-55E, hoogte: 11 m

Actueel weer

Dit bericht is 27 minuten geleden gemaakt, om 12:27 UTC
Wind 20 kt uit het zuidzuidwesten
Temperatuur 16°C
Vochtigheid 77%
Druk 1002 hPa
Zicht 10 km of meer
Weinig wolken op 1700 ft
Verspreide wolken op 2900 ft
Gebroken wolken op 3600 ft

METAR: EHVL 161227Z AUTO 21020KT 9999 FEW017 SCT029 BKN036 16/12 Q1002 BLU

Tijdstip: 14:54 (12:54 UTC)


TAF: ontbreekt

Waarnemingen en weersverwachtingen van meer dan 4000 vliegvelden (METAR en TAF).

De beschikbare stations zijn de gele en rode punten op de kaart.

Ga met uw muis naar het station om de naam te zien.

Klik dan om waarnemingen en weersverwachtingen te zien.

kaart wijzigen: klik op de groene knoppen met een zwart kruis om in te zoomen, op de groene knop met een streepje om uit te zoomen of op de groene pijlen voor aangrenzende kaarten.


METAR-TAF: